x

Matinicus Rock, Me (mism1) Weather Station

6:00 - Wed 18th Jan 2017 All times are EST. -5 hours from GMT.

  • Wind
    33mph, 37mph gusts
  • Luft Temp 33°f
  • Sea Pressure 1018.4mb
  • Matinicus Rock, Me
  • Matinicus Rock, Me

More Historic Weather Station data

Upgrade to MSW Pro to gain access to the past 30 days of data for over 8000 Wavebouys and Weather Stations around the globe.

Join Pro

Comparision Forecast

View Surf forecast
   
Mi 01/18 6:00 33 37 mph 1018.4mb 33f
5:00 31 33 mph 1018.3mb 35f
4:00 29 30 mph 1019.1mb 34f
3:00 26 31 mph 1019.7mb 35f
2:00 28 30 mph 1020.5mb 35f
1:00 25 28 mph 1021mb 35f
12:00 22 24 mph 1021.5mb 35f
Di 01/17 11:00 24 28 mph 1022mb 35f
10:00 23 24 mph 1022.7mb 35f
9:00 22 24 mph 1023mb 35f
8:00 18 21 mph 1023.3mb 35f
7:00 18 21 mph 1023.3mb 35f
6:00 15 17 mph 1023.7mb 35f
5:00 13 15 mph 1023.8mb 35f
4:00 13 15 mph 1023.5mb 35f
3:00 13 16 mph 1023mb 35f
2:00 10 11 mph 1023.1mb 36f
1:00 10 13 mph 1023.2mb 36f
12:00 13 14 mph 1023.5mb 36f
11:00 16 18 mph 1023.4mb 36f
10:00 21 24 mph 1023.9mb 36f
9:00 22 24 mph 1023.7mb 37f
8:00 15 17 mph 1023.3mb 37f
7:00 11 13 mph 1022.1mb 37f
6:00 10 11 mph 1021.1mb 37f
5:00 13 14 mph 1020.6mb 37f
4:00 15 16 mph 1020.5mb 37f
3:00 10
mph
1020.6mb 37f
2:00 14 15 mph 1020.1mb 38f
1:00 15 17 mph 1019.3mb 38f
12:00 16 18 mph 1019.4mb 39f
Mo 01/16 11:00 20 21 mph 1019.6mb 39f
10:00 23 25 mph 1019.9mb 40f
9:00 32 34 mph 1019.7mb 41f
8:00 33 37 mph 1020mb 41f
7:00 29 32 mph 1020.5mb 40f
6:00 32 36 mph 1020.6mb 39f
5:00 33 36 mph 1020.6mb 39f
4:00 32 38 mph 1021.5mb 38f
3:00 29 32 mph 1022.2mb 38f
2:00 30 32 mph 1023.1mb 37f
1:00 28 32 mph 1023.7mb 35f
12:00 24 28 mph 1025mb 34f
11:00 24 30 mph 1026.6mb 33f
10:00 20 23 mph 1027.5mb 33f
9:00 16 20 mph 1028.2mb 31f
8:00 13 15 mph 1028.9mb 28f
7:00 6 8 mph 1028.9mb 26f
6:00 6 7 mph 1029.4mb 24f
5:00  -  mph 1029.9mb 23f
4:00 5 7 mph 1029.8mb 23f
3:00 3 5 mph 1029.9mb 23f
2:00 5 7 mph 1030mb 22f
1:00 15 17 mph 1029.5mb 22f
12:00 14 17 mph 1028.9mb 22f
So 01/15 11:00 15 18 mph 1028.6mb 23f
10:00 18 20 mph 1028.6mb 24f
9:00 21 23 mph 1028.2mb 24f
8:00 23 25 mph 1027.9mb 26f
7:00 23 25 mph 1027.6mb 26f
6:00 20 22 mph 1026.8mb 27f
5:00 20 23 mph 1025.9mb 28f
4:00 17 18 mph 1024.8mb 29f
3:00 17 18 mph 1023.9mb 29f
2:00 17 21 mph 1023.5mb 29f
1:00 20 23 mph 1023.1mb 28f
12:00 23 26 mph 1022.8mb 29f
11:00 29 33 mph 1023.1mb 28f
10:00 29 34 mph 1023.3mb 29f
9:00 31 37 mph 1022.9mb 29f
8:00 28 31 mph 1022.2mb 29f
7:00 30 32 mph 1021.4mb 29f
6:00 22 24 mph 1021.2mb 27f
5:00 22 25 mph 1020.9mb 29f
4:00 17 20 mph 1020.9mb 29f
3:00 23 25 mph 1020.8mb 30f
2:00 25 28 mph 1021.2mb 31f
1:00 17 18 mph 1021.7mb 30f
12:00 15 17 mph 1022.3mb 30f
Sa 01/14 11:00 24 28 mph 1023.2mb 33f
10:00 26 30 mph 1024.4mb 32f
9:00 18 21 mph 1025.7mb 30f
8:00 17 21 mph 1026.4mb 28f
7:00 21 23 mph 1027.4mb 28f
6:00 14 16 mph 1028.7mb 27f
5:00 16 18 mph 1029.5mb 25f
4:00 14 16 mph 1030.9mb 23f
3:00 9 13 mph 1032.5mb 21f
2:00 9 11 mph 1032.9mb 21f
1:00 9 13 mph 1033.9mb 20f